createdAt,value
2022-11-18T00:01:16.613Z,93.70
2022-11-18T00:03:44.607Z,93.20
2022-11-18T00:06:23.323Z,94.40
2022-11-18T00:08:51.499Z,99.90
2022-11-18T00:11:39.837Z,99.90
2022-11-18T00:14:19.035Z,99.90
2022-11-18T00:17:01.538Z,99.90
2022-11-18T00:19:31.595Z,99.90
2022-11-18T00:21:59.522Z,99.90
2022-11-18T00:24:27.127Z,99.90
2022-11-18T00:26:55.644Z,99.90
2022-11-18T00:29:24.010Z,99.90
2022-11-18T00:31:51.143Z,99.90
2022-11-18T00:34:19.482Z,99.90
2022-11-18T00:36:47.544Z,99.90
2022-11-18T00:39:17.488Z,99.90
2022-11-18T00:42:03.783Z,99.90
2022-11-18T00:44:31.196Z,99.90
2022-11-18T00:46:58.408Z,99.90
2022-11-18T00:49:25.853Z,98.10
2022-11-18T00:51:53.034Z,99.90
2022-11-18T00:54:20.502Z,99.90
2022-11-18T00:56:48.654Z,99.90
2022-11-18T00:59:16.146Z,99.90
2022-11-18T01:01:43.868Z,99.90
2022-11-18T01:04:11.132Z,99.90
2022-11-18T01:06:38.369Z,99.90
2022-11-18T01:09:05.678Z,99.90
2022-11-18T01:11:51.503Z,99.90
2022-11-18T01:14:19.282Z,99.90
2022-11-18T01:16:51.305Z,99.90
2022-11-18T01:19:19.774Z,99.90
2022-11-18T01:21:47.280Z,99.90
2022-11-18T01:24:14.624Z,99.90
2022-11-18T01:26:42.128Z,99.90
2022-11-18T01:29:09.619Z,99.90
2022-11-18T01:31:50.073Z,99.90
2022-11-18T01:34:28.259Z,99.90
2022-11-18T01:36:56.623Z,99.90
2022-11-18T01:39:23.875Z,99.90
2022-11-18T01:41:51.675Z,99.90
2022-11-18T01:44:56.655Z,99.90
2022-11-18T01:47:25.943Z,99.90
2022-11-18T01:49:53.532Z,99.90
2022-11-18T01:52:40.132Z,99.90
2022-11-18T01:55:18.300Z,99.90
2022-11-18T01:57:49.976Z,99.90
2022-11-18T02:00:17.802Z,99.90
2022-11-18T02:02:45.973Z,99.90
2022-11-18T02:05:14.700Z,99.90
2022-11-18T02:07:43.666Z,99.90
2022-11-18T02:10:19.317Z,99.90
2022-11-18T02:12:46.868Z,99.90
2022-11-18T02:15:14.285Z,99.90
2022-11-18T02:17:52.652Z,99.90
2022-11-18T02:20:32.732Z,99.90
2022-11-18T02:23:27.579Z,99.90
2022-11-18T02:26:15.835Z,99.90
2022-11-18T02:29:09.965Z,99.90
2022-11-18T02:31:37.078Z,99.90
2022-11-18T02:34:15.181Z,99.90
2022-11-18T02:36:52.168Z,99.90
2022-11-18T02:39:29.922Z,99.90
2022-11-18T02:41:58.513Z,99.90
2022-11-18T02:44:29.381Z,99.90
2022-11-18T02:47:02.067Z,99.90
2022-11-18T02:49:37.233Z,99.90
2022-11-18T02:52:07.831Z,99.90
2022-11-18T02:54:39.181Z,99.90
2022-11-18T02:57:06.787Z,99.90
2022-11-18T02:59:34.141Z,99.90
2022-11-18T03:02:02.122Z,99.90
2022-11-18T03:04:30.592Z,99.90
2022-11-18T03:07:23.974Z,99.90
2022-11-18T03:09:52.938Z,99.90
2022-11-18T03:12:36.542Z,99.90
2022-11-18T03:15:09.302Z,99.90
2022-11-18T03:17:39.429Z,99.90
2022-11-18T03:20:30.983Z,99.90
2022-11-18T03:23:07.076Z,99.90
2022-11-18T03:25:41.104Z,99.90
2022-11-18T03:28:25.159Z,99.90
2022-11-18T03:31:13.603Z,99.90
2022-11-18T03:33:59.639Z,99.90
2022-11-18T03:36:33.540Z,99.90
2022-11-18T03:39:03.357Z,99.90
2022-11-18T03:41:34.381Z,99.90
2022-11-18T03:44:11.175Z,99.90
2022-11-18T03:46:50.208Z,99.90
2022-11-18T03:49:46.870Z,99.90
2022-11-18T03:52:20.624Z,99.90
2022-11-18T03:54:50.461Z,99.90
2022-11-18T03:57:30.599Z,99.90
2022-11-18T04:00:06.791Z,99.90
2022-11-18T04:02:34.919Z,99.90
2022-11-18T04:05:04.184Z,99.90
2022-11-18T04:07:36.763Z,99.90
2022-11-18T04:10:17.019Z,99.90
2022-11-18T04:13:07.131Z,99.90
2022-11-18T04:15:38.556Z,99.90
2022-11-18T04:18:06.692Z,99.90
2022-11-18T04:20:34.308Z,99.90
2022-11-18T04:23:01.952Z,99.90
2022-11-18T04:25:29.149Z,99.90
2022-11-18T04:27:56.435Z,99.90
2022-11-18T04:30:23.803Z,99.90
2022-11-18T04:32:51.149Z,99.90
2022-11-18T04:35:18.528Z,99.90
2022-11-18T04:37:45.808Z,99.90
2022-11-18T04:40:13.506Z,99.90
2022-11-18T04:42:40.851Z,99.90
2022-11-18T04:45:08.668Z,99.90
2022-11-18T04:47:36.022Z,99.90
2022-11-18T04:50:04.236Z,99.90
2022-11-18T04:52:31.400Z,99.90
2022-11-18T04:54:58.585Z,99.90
2022-11-18T04:57:25.689Z,99.90
2022-11-18T04:59:52.951Z,99.90
2022-11-18T05:02:20.205Z,99.90
2022-11-18T05:04:47.890Z,99.90
2022-11-18T05:07:16.163Z,99.90
2022-11-18T05:09:43.544Z,99.90
2022-11-18T05:12:33.756Z,99.90
2022-11-18T05:15:01.486Z,99.90
2022-11-18T05:17:28.913Z,99.90
2022-11-18T05:19:56.086Z,99.90
2022-11-18T05:22:23.307Z,99.90
2022-11-18T05:24:50.467Z,99.90
2022-11-18T05:27:17.885Z,99.90
2022-11-18T05:29:45.204Z,99.90
2022-11-18T05:32:12.472Z,99.90
2022-11-18T05:34:41.272Z,99.90
2022-11-18T05:37:08.854Z,99.90
2022-11-18T05:39:36.157Z,99.90
2022-11-18T05:42:22.428Z,99.90
2022-11-18T05:44:57.453Z,99.90
2022-11-18T05:47:25.420Z,99.90
2022-11-18T05:49:52.704Z,99.90
2022-11-18T05:52:19.880Z,99.90
2022-11-18T05:54:50.539Z,99.90
2022-11-18T05:57:17.984Z,99.90
2022-11-18T05:59:45.264Z,99.90
2022-11-18T06:02:19.702Z,99.90
2022-11-18T06:04:53.153Z,99.90
2022-11-18T06:07:29.786Z,99.90
2022-11-18T06:10:04.742Z,99.90
2022-11-18T06:12:38.943Z,99.90
2022-11-18T06:15:40.813Z,99.90
2022-11-18T06:18:28.729Z,99.90
2022-11-18T06:21:01.640Z,99.90
2022-11-18T06:23:35.575Z,99.90
2022-11-18T06:26:03.012Z,99.90
2022-11-18T06:28:30.536Z,99.90
2022-11-18T06:30:59.043Z,99.90
2022-11-18T06:33:26.258Z,99.90
2022-11-18T06:35:53.521Z,99.90
2022-11-18T06:38:24.320Z,99.90
2022-11-18T06:40:51.963Z,99.90
2022-11-18T06:43:37.595Z,99.90
2022-11-18T06:46:25.078Z,99.90
2022-11-18T06:48:52.255Z,99.90
2022-11-18T06:51:19.715Z,99.90
2022-11-18T06:53:46.971Z,99.90
2022-11-18T06:56:16.416Z,99.90
2022-11-18T06:58:44.039Z,99.90
2022-11-18T07:01:17.312Z,99.90
2022-11-18T07:03:46.587Z,99.90
2022-11-18T07:06:16.528Z,99.90
2022-11-18T07:08:44.395Z,99.90
2022-11-18T07:11:14.681Z,99.90
2022-11-18T07:13:43.986Z,99.90
2022-11-18T07:16:14.395Z,99.90
2022-11-18T07:18:43.361Z,99.90
2022-11-18T07:21:13.417Z,99.90
2022-11-18T07:23:41.197Z,99.90
2022-11-18T07:26:08.681Z,99.90
2022-11-18T07:28:36.292Z,95.60
2022-11-18T07:31:08.187Z,96.80
2022-11-18T07:33:36.390Z,98.60
2022-11-18T07:36:04.575Z,99.90
2022-11-18T07:38:31.923Z,99.90
2022-11-18T07:41:17.023Z,99.90
2022-11-18T07:43:44.893Z,99.90
2022-11-18T07:46:23.886Z,99.90
2022-11-18T07:48:53.623Z,99.90
2022-11-18T07:51:23.520Z,99.90
2022-11-18T07:53:50.981Z,99.90
2022-11-18T07:56:19.214Z,99.90
2022-11-18T07:58:46.848Z,99.90
2022-11-18T08:01:17.176Z,99.90
2022-11-18T08:03:45.035Z,99.90
2022-11-18T08:06:15.748Z,99.90
2022-11-18T08:08:44.699Z,99.90
2022-11-18T08:11:20.396Z,99.90
2022-11-18T08:13:49.428Z,99.90
2022-11-18T08:16:19.212Z,99.90
2022-11-18T08:18:46.765Z,99.90
2022-11-18T08:21:15.156Z,99.90
2022-11-18T08:23:42.918Z,99.90
2022-11-18T08:26:13.770Z,99.90
2022-11-18T08:28:42.768Z,99.90
2022-11-18T08:31:21.837Z,99.90
2022-11-18T08:33:49.058Z,99.90
2022-11-18T08:36:21.792Z,99.90
2022-11-18T08:38:49.407Z,99.90
2022-11-18T08:41:25.501Z,99.90
2022-11-18T08:43:52.632Z,99.90
2022-11-18T08:46:20.070Z,99.90
2022-11-18T08:48:47.256Z,99.90
2022-11-18T08:51:15.819Z,99.90
2022-11-18T08:53:43.284Z,99.90
2022-11-18T08:56:16.763Z,99.90
2022-11-18T08:58:44.592Z,99.90
2022-11-18T09:01:12.343Z,99.90
2022-11-18T09:03:39.890Z,99.90
2022-11-18T09:06:10.912Z,99.90
2022-11-18T09:08:39.302Z,99.90
2022-11-18T09:11:11.759Z,99.90
2022-11-18T09:16:29.072Z,99.90
2022-11-18T09:18:57.329Z,99.90
2022-11-18T09:21:26.218Z,99.90
2022-11-18T09:23:53.695Z,99.90
2022-11-18T09:26:23.876Z,99.90
2022-11-18T09:28:54.101Z,99.90
2022-11-18T09:31:21.530Z,99.90
2022-11-18T09:33:48.739Z,99.90
2022-11-18T09:36:23.421Z,99.90
2022-11-18T09:38:53.495Z,99.90
2022-11-18T09:41:41.741Z,99.90
2022-11-18T09:44:21.271Z,99.90
2022-11-18T09:47:09.632Z,99.90
2022-11-18T09:49:40.044Z,99.90
2022-11-18T09:52:13.411Z,99.90
2022-11-18T09:54:40.783Z,99.90
2022-11-18T09:57:19.328Z,99.90
2022-11-18T09:59:47.102Z,99.90
2022-11-18T10:02:23.209Z,99.90
2022-11-18T10:04:51.461Z,99.90
2022-11-18T10:07:42.072Z,99.90
2022-11-18T10:10:21.292Z,97.50
2022-11-18T10:13:08.769Z,99.40
2022-11-18T10:15:51.133Z,99.90
2022-11-18T10:18:58.655Z,99.90
2022-11-18T10:21:27.238Z,99.90
2022-11-18T10:24:02.719Z,99.90
2022-11-18T10:26:38.218Z,99.90
2022-11-18T10:29:10.865Z,99.90
2022-11-18T10:32:04.375Z,98.90
2022-11-18T10:34:34.557Z,95.90
2022-11-18T10:37:34.494Z,92.50
2022-11-18T10:40:24.988Z,92.70
2022-11-18T10:42:52.224Z,92.90
2022-11-18T10:45:31.003Z,94.70
2022-11-18T10:48:14.868Z,93.30
2022-11-18T10:50:43.392Z,99.60
2022-11-18T10:53:31.445Z,88.90
2022-11-18T10:56:00.431Z,76.60
2022-11-18T10:58:30.071Z,64.00
2022-11-18T11:01:16.049Z,62.70
2022-11-18T11:03:52.579Z,62.90
2022-11-18T11:06:31.300Z,61.20
2022-11-18T11:09:01.646Z,68.00
2022-11-18T11:11:40.493Z,68.50
2022-11-18T11:14:18.085Z,79.40
2022-11-18T11:16:59.635Z,85.40
2022-11-18T11:19:56.894Z,90.60
2022-11-18T11:22:24.067Z,90.10
2022-11-18T11:24:51.246Z,87.50
2022-11-18T11:30:25.410Z,92.40
2022-11-18T11:33:33.306Z,92.50
2022-11-18T11:36:43.938Z,92.90
2022-11-18T11:40:08.091Z,96.30
2022-11-18T11:42:44.104Z,95.50
2022-11-18T11:45:24.587Z,96.90
2022-11-18T11:48:29.344Z,97.60
2022-11-18T11:51:04.953Z,94.00
2022-11-18T11:53:51.351Z,90.70
2022-11-18T11:56:46.278Z,91.20
2022-11-18T11:59:29.508Z,82.50
2022-11-18T12:02:32.352Z,77.90
2022-11-18T12:05:28.081Z,80.50
2022-11-18T12:08:01.134Z,78.50
2022-11-18T12:10:53.537Z,67.50
2022-11-18T12:13:32.481Z,67.50
2022-11-18T12:16:12.078Z,59.70
2022-11-18T12:18:46.273Z,61.30
2022-11-18T12:21:38.480Z,59.70
2022-11-18T12:24:33.157Z,53.00
2022-11-18T12:27:09.665Z,56.50
2022-11-18T12:29:48.224Z,56.40
2022-11-18T12:32:42.843Z,50.80
2022-11-18T12:35:13.537Z,73.90
2022-11-18T12:37:44.163Z,52.30
2022-11-18T12:40:32.812Z,52.10
2022-11-18T12:43:19.450Z,70.30
2022-11-18T12:45:46.643Z,49.30
2022-11-18T12:48:32.442Z,52.40
2022-11-18T12:51:19.098Z,49.00
2022-11-18T12:53:51.113Z,45.90
2022-11-18T12:56:18.245Z,45.80
2022-11-18T12:58:51.012Z,45.60
2022-11-18T13:01:21.206Z,45.50
2022-11-18T13:03:48.523Z,48.30
2022-11-18T13:06:25.900Z,49.50
2022-11-18T13:09:21.520Z,50.70
2022-11-18T13:11:59.994Z,51.00
2022-11-18T13:14:53.245Z,51.40
2022-11-18T13:17:54.685Z,53.90
2022-11-18T13:20:33.539Z,51.10
2022-11-18T13:23:35.738Z,53.10
2022-11-18T13:26:24.519Z,51.20
2022-11-18T13:28:54.642Z,52.60
2022-11-18T13:31:40.586Z,52.20
2022-11-18T13:34:28.361Z,51.20
2022-11-18T13:36:58.080Z,51.00
2022-11-18T13:39:26.442Z,50.40
2022-11-18T13:42:05.549Z,49.10
2022-11-18T13:44:38.191Z,48.70
2022-11-18T13:47:08.076Z,52.80
2022-11-18T13:49:38.252Z,55.40
2022-11-18T13:52:05.553Z,56.70
2022-11-18T13:54:32.782Z,59.40
2022-11-18T13:57:00.064Z,58.80
2022-11-18T13:59:27.821Z,59.40
2022-11-18T14:01:59.125Z,62.30
2022-11-18T14:04:31.899Z,68.20
2022-11-18T14:07:31.899Z,64.80
2022-11-18T14:10:10.557Z,63.90
2022-11-18T14:12:37.735Z,66.80
2022-11-18T14:15:33.234Z,67.00
2022-11-18T14:18:02.635Z,65.00
2022-11-18T14:20:31.051Z,60.70
2022-11-18T14:23:00.954Z,59.30
2022-11-18T14:25:34.276Z,67.30
2022-11-18T14:28:23.587Z,70.80
2022-11-18T14:30:57.695Z,64.20
2022-11-18T14:33:26.053Z,62.70
2022-11-18T14:35:59.892Z,66.00
2022-11-18T14:38:52.064Z,65.10
2022-11-18T14:41:45.179Z,67.40
2022-11-18T14:44:15.771Z,69.50
2022-11-18T14:46:46.095Z,69.40
2022-11-18T14:49:19.030Z,68.10
2022-11-18T14:51:46.963Z,70.60
2022-11-18T14:54:25.196Z,73.60
2022-11-18T14:56:57.225Z,74.70
2022-11-18T14:59:24.534Z,81.60
2022-11-18T15:01:51.789Z,89.70
2022-11-18T15:04:20.935Z,91.70
2022-11-18T15:06:48.557Z,91.00
2022-11-18T15:09:15.884Z,91.10
2022-11-18T15:11:43.094Z,88.60
2022-11-18T15:14:10.355Z,90.30
2022-11-18T15:16:37.630Z,90.80
2022-11-18T15:19:06.464Z,93.30
2022-11-18T15:21:33.961Z,92.70
2022-11-18T15:24:01.107Z,94.10
2022-11-18T15:26:29.847Z,96.80
2022-11-18T15:28:57.954Z,97.10
2022-11-18T15:31:25.767Z,97.10
2022-11-18T15:33:54.926Z,96.00
2022-11-18T15:36:24.488Z,92.60
2022-11-18T15:38:52.915Z,92.20
2022-11-18T15:41:26.243Z,99.90
2022-11-18T15:43:55.092Z,89.30
2022-11-18T15:46:24.470Z,92.20
2022-11-18T15:48:53.193Z,92.20
2022-11-18T15:51:21.249Z,94.90
2022-11-18T15:53:48.525Z,94.50
2022-11-18T15:56:24.972Z,93.30
2022-11-18T15:59:01.070Z,92.80
2022-11-18T16:01:33.942Z,93.40
2022-11-18T16:04:01.878Z,95.00
2022-11-18T16:06:29.118Z,96.00
2022-11-18T16:08:59.985Z,98.20
2022-11-18T16:11:47.851Z,98.30
2022-11-18T16:14:17.719Z,97.60
2022-11-18T16:16:46.729Z,98.90
2022-11-18T16:19:16.999Z,98.70
2022-11-18T16:21:47.181Z,98.80
2022-11-18T16:24:20.700Z,99.70
2022-11-18T16:26:48.597Z,99.90
2022-11-18T16:29:17.370Z,96.90
2022-11-18T16:31:50.620Z,96.70
2022-11-18T16:34:28.408Z,97.10
2022-11-18T16:37:02.422Z,96.60
2022-11-18T16:39:30.064Z,97.30
2022-11-18T16:42:06.898Z,96.70
2022-11-18T16:44:35.198Z,99.00
2022-11-18T16:47:05.326Z,96.80
2022-11-18T16:49:35.004Z,99.60
2022-11-18T16:52:02.149Z,99.90
2022-11-18T16:54:31.372Z,99.80
2022-11-18T16:56:59.448Z,99.90
2022-11-18T16:59:29.051Z,99.90
2022-11-18T17:01:58.952Z,99.90
2022-11-18T17:04:27.524Z,99.90
2022-11-18T17:06:55.907Z,99.90
2022-11-18T17:09:24.523Z,99.90
2022-11-18T17:11:53.545Z,99.90
2022-11-18T17:14:21.938Z,99.90
2022-11-18T17:16:49.524Z,99.90
2022-11-18T17:19:19.227Z,99.90
2022-11-18T17:21:47.019Z,99.90
2022-11-18T17:24:16.301Z,99.90
2022-11-18T17:26:44.183Z,99.90
2022-11-18T17:29:12.474Z,99.90
2022-11-18T17:31:40.287Z,99.90
2022-11-18T17:34:11.065Z,99.90
2022-11-18T17:36:38.226Z,99.90
2022-11-18T17:39:05.462Z,99.90
2022-11-18T17:41:51.104Z,99.90
2022-11-18T17:44:18.913Z,99.90
2022-11-18T17:46:47.366Z,99.90
2022-11-18T17:49:18.105Z,99.90
2022-11-18T17:51:51.099Z,99.90
2022-11-18T17:54:19.329Z,99.90
2022-11-18T17:56:47.287Z,99.90
2022-11-18T17:59:15.788Z,99.90
2022-11-18T18:01:43.273Z,99.90
2022-11-18T18:04:11.218Z,99.90
2022-11-18T18:06:38.434Z,99.90
2022-11-18T18:09:05.779Z,99.90
2022-11-18T18:11:33.145Z,99.90
2022-11-18T18:14:15.793Z,99.90
2022-11-18T18:16:48.516Z,99.90
2022-11-18T18:19:22.105Z,99.90
2022-11-18T18:21:49.971Z,99.10
2022-11-18T18:24:19.825Z,99.90
2022-11-18T18:26:47.571Z,99.90
2022-11-18T18:29:14.968Z,99.90
2022-11-18T18:31:42.143Z,99.90
2022-11-18T18:34:09.335Z,99.90
2022-11-18T18:36:36.562Z,99.90
2022-11-18T18:39:04.646Z,99.90
2022-11-18T18:41:32.626Z,99.90
2022-11-18T18:44:00.713Z,99.90
2022-11-18T18:46:34.606Z,99.90
2022-11-18T18:49:06.982Z,99.90
2022-11-18T18:51:42.478Z,99.90
2022-11-18T18:54:14.841Z,99.90
2022-11-18T18:56:42.246Z,99.90
2022-11-18T18:59:10.436Z,99.90
2022-11-18T19:01:38.434Z,99.90
2022-11-18T19:04:07.706Z,99.90
2022-11-18T19:09:26.649Z,99.90
2022-11-18T19:12:12.394Z,99.90
2022-11-18T19:14:41.103Z,99.90
2022-11-18T19:17:11.626Z,99.90
2022-11-18T19:20:21.056Z,99.90
2022-11-18T19:22:48.250Z,99.90
2022-11-18T19:25:15.742Z,99.90
2022-11-18T19:27:43.209Z,99.90
2022-11-18T19:30:11.466Z,99.90
2022-11-18T19:32:40.281Z,99.90
2022-11-18T19:35:09.635Z,99.90
2022-11-18T19:37:37.258Z,99.90
2022-11-18T19:40:08.981Z,99.90
2022-11-18T19:42:39.647Z,99.90
2022-11-18T19:45:08.808Z,99.90
2022-11-18T19:47:40.401Z,99.90
2022-11-18T19:50:08.079Z,99.90
2022-11-18T19:52:35.773Z,99.90
2022-11-18T19:55:02.889Z,99.90
2022-11-18T19:57:31.329Z,99.90
2022-11-18T19:59:58.541Z,99.90
2022-11-18T20:02:25.650Z,99.90
2022-11-18T20:05:11.464Z,99.90
2022-11-18T20:07:38.780Z,99.90
2022-11-18T20:10:06.784Z,99.90
2022-11-18T20:12:33.925Z,99.90
2022-11-18T20:15:01.342Z,99.90
2022-11-18T20:17:28.467Z,99.90
2022-11-18T20:19:55.559Z,99.90
2022-11-18T20:22:22.775Z,99.90
2022-11-18T20:24:49.883Z,99.90
2022-11-18T20:27:18.819Z,99.90
2022-11-18T20:29:46.226Z,99.90
2022-11-18T20:32:13.454Z,99.90
2022-11-18T20:34:40.617Z,99.90
2022-11-18T20:37:07.737Z,99.90
2022-11-18T20:39:34.843Z,99.90
2022-11-18T20:42:20.588Z,99.90
2022-11-18T20:44:47.691Z,99.90
2022-11-18T20:47:14.896Z,99.90
2022-11-18T20:49:42.560Z,99.90
2022-11-18T20:52:09.726Z,99.90
2022-11-18T20:54:36.822Z,99.90
2022-11-18T20:57:04.078Z,99.90
2022-11-18T20:59:31.244Z,99.90
2022-11-18T21:01:58.538Z,99.90
2022-11-18T21:04:25.813Z,99.90
2022-11-18T21:06:58.816Z,99.90
2022-11-18T21:09:26.508Z,99.90
2022-11-18T21:11:53.714Z,99.90
2022-11-18T21:14:25.470Z,99.90
2022-11-18T21:17:00.571Z,99.90
2022-11-18T21:19:28.764Z,99.90
2022-11-18T21:21:57.412Z,99.90
2022-11-18T21:24:29.179Z,99.90
2022-11-18T21:26:57.897Z,99.90
2022-11-18T21:29:27.899Z,99.90
2022-11-18T21:31:55.360Z,99.90
2022-11-18T21:34:23.020Z,99.90
2022-11-18T21:36:54.568Z,99.90
2022-11-18T21:39:24.195Z,99.90
2022-11-18T21:41:55.612Z,99.90
2022-11-18T21:44:23.950Z,99.90
2022-11-18T21:46:51.127Z,99.90
2022-11-18T21:49:18.436Z,99.90
2022-11-18T21:51:45.977Z,99.90
2022-11-18T21:54:15.829Z,99.90
2022-11-18T21:56:43.271Z,99.90
2022-11-18T21:59:10.522Z,99.90
2022-11-18T22:01:37.854Z,99.90
2022-11-18T22:04:05.931Z,99.90
2022-11-18T22:06:34.495Z,99.90
2022-11-18T22:09:03.709Z,99.90
2022-11-18T22:11:31.118Z,99.90
2022-11-18T22:13:58.437Z,99.90
2022-11-18T22:16:26.745Z,99.90
2022-11-18T22:19:01.397Z,99.90
2022-11-18T22:21:32.365Z,99.90
2022-11-18T22:24:01.192Z,99.90
2022-11-18T22:26:29.276Z,99.90
2022-11-18T22:28:57.951Z,99.90
2022-11-18T22:31:26.887Z,99.90
2022-11-18T22:33:55.549Z,99.90
2022-11-18T22:36:25.468Z,99.90
2022-11-18T22:38:53.923Z,99.90
2022-11-18T22:41:47.235Z,99.90
2022-11-18T22:44:16.316Z,99.90
2022-11-18T22:46:45.297Z,99.90
2022-11-18T22:49:12.865Z,99.90
2022-11-18T22:51:40.559Z,99.90
2022-11-18T22:54:38.500Z,99.90
2022-11-18T22:56:55.718Z,99.90
2022-11-18T22:59:23.264Z,99.90
2022-11-18T23:01:51.710Z,99.90
2022-11-18T23:04:19.404Z,99.90
2022-11-18T23:06:46.538Z,99.90
2022-11-18T23:09:13.831Z,99.90
2022-11-18T23:11:59.318Z,99.90
2022-11-18T23:14:26.618Z,99.90
2022-11-18T23:16:54.115Z,99.90
2022-11-18T23:19:21.653Z,99.90
2022-11-18T23:21:49.221Z,99.90
2022-11-18T23:24:18.377Z,99.90
2022-11-18T23:26:46.163Z,99.90
2022-11-18T23:29:14.596Z,99.90
2022-11-18T23:31:43.650Z,99.90
2022-11-18T23:34:12.516Z,99.90
2022-11-18T23:36:40.433Z,99.90
2022-11-18T23:39:07.917Z,99.90
2022-11-18T23:41:35.252Z,99.90
2022-11-18T23:44:02.615Z,99.90
2022-11-18T23:46:29.917Z,99.90
2022-11-18T23:48:57.204Z,99.90
2022-11-18T23:51:26.139Z,99.90
2022-11-18T23:53:57.642Z,99.90
2022-11-18T23:56:27.088Z,99.90
2022-11-18T23:58:56.615Z,99.90
